createdAt,value
2017-10-09T00:00:29.740Z,11.67
2017-10-09T00:06:16.191Z,12.17
2017-10-09T00:11:59.160Z,11.93
2017-10-09T00:17:48.460Z,11.88
2017-10-09T00:23:31.499Z,11.62
2017-10-09T00:29:15.398Z,11.82
2017-10-09T00:34:59.110Z,11.52
2017-10-09T00:40:45.954Z,11.67
2017-10-09T00:46:28.782Z,11.56
2017-10-09T00:52:18.285Z,11.46
2017-10-09T00:57:58.910Z,11.42
2017-10-09T01:03:42.123Z,11.25
2017-10-09T01:09:27.177Z,11.03
2017-10-09T01:15:16.217Z,11.03
2017-10-09T01:20:59.385Z,11.30
2017-10-09T01:26:44.310Z,11.43
2017-10-09T01:32:26.999Z,11.42
2017-10-09T01:38:15.998Z,11.47
2017-10-09T01:43:59.544Z,11.22
2017-10-09T01:49:46.171Z,11.81
2017-10-09T01:55:28.955Z,12.45
2017-10-09T02:01:15.251Z,11.89
2017-10-09T02:07:01.910Z,12.17
2017-10-09T02:12:44.366Z,12.17
2017-10-09T02:18:31.242Z,12.42
2017-10-09T02:24:14.573Z,12.70
2017-10-09T02:29:57.615Z,12.62
2017-10-09T02:35:46.918Z,12.47
2017-10-09T02:41:30.214Z,12.21
2017-10-09T02:47:12.847Z,12.24
2017-10-09T02:53:02.104Z,12.36
2017-10-09T02:58:44.698Z,12.61
2017-10-09T03:04:29.499Z,12.63
2017-10-09T03:10:16.263Z,11.99
2017-10-09T03:15:59.267Z,11.72
2017-10-09T03:21:42.683Z,11.56
2017-10-09T03:27:33.143Z,11.76
2017-10-09T03:33:15.792Z,11.55
2017-10-09T03:38:58.851Z,11.37
2017-10-09T03:44:42.697Z,11.55
2017-10-09T03:50:29.410Z,11.80
2017-10-09T03:56:14.051Z,11.64
2017-10-09T04:01:59.619Z,11.75
2017-10-09T04:07:46.328Z,11.63
2017-10-09T04:13:33.419Z,11.96
2017-10-09T04:19:13.647Z,11.53
2017-10-09T04:24:57.068Z,11.62
2017-10-09T04:30:44.065Z,11.21
2017-10-09T04:36:30.455Z,11.15
2017-10-09T04:42:15.164Z,11.15
2017-10-09T04:47:59.930Z,11.23
2017-10-09T04:53:43.524Z,11.69
2017-10-09T04:59:32.672Z,11.82
2017-10-09T05:05:16.011Z,12.19
2017-10-09T05:11:00.759Z,12.36
2017-10-09T05:16:43.406Z,12.49
2017-10-09T05:22:28.434Z,12.50
2017-10-09T05:28:17.824Z,12.37
2017-10-09T05:33:58.647Z,12.18
2017-10-09T05:39:44.026Z,12.12
2017-10-09T05:45:28.734Z,12.03
2017-10-09T05:51:15.988Z,11.70
2017-10-09T05:57:00.147Z,11.47
2017-10-09T06:02:47.067Z,11.25
2017-10-09T06:08:30.821Z,11.09
2017-10-09T06:14:14.019Z,11.26
2017-10-09T06:20:00.728Z,11.21
2017-10-09T06:25:45.242Z,11.42
2017-10-09T06:31:34.413Z,11.39
2017-10-09T06:37:14.215Z,11.23
2017-10-09T06:43:03.984Z,11.60
2017-10-09T06:48:46.807Z,11.33
2017-10-09T06:54:29.183Z,11.11
2017-10-09T07:00:14.050Z,11.32
2017-10-09T07:06:00.582Z,11.21
2017-10-09T07:11:44.947Z,11.33
2017-10-09T07:17:28.373Z,11.42
2017-10-09T07:23:17.745Z,11.81
2017-10-09T07:29:00.907Z,12.48
2017-10-09T07:34:47.728Z,13.69
2017-10-09T07:40:30.111Z,14.55
2017-10-09T07:46:16.598Z,16.63
2017-10-09T07:51:59.469Z,17.61
2017-10-09T07:57:44.011Z,18.52
2017-10-09T08:03:28.847Z,18.14
2017-10-09T08:09:15.831Z,17.09
2017-10-09T08:14:59.156Z,16.82
2017-10-09T08:20:43.772Z,16.21
2017-10-09T08:26:29.389Z,16.83
2017-10-09T08:32:17.981Z,18.96
2017-10-09T08:38:01.175Z,20.65
2017-10-09T08:43:48.072Z,21.15
2017-10-09T08:49:31.686Z,22.52
2017-10-09T08:55:14.521Z,24.27
2017-10-09T09:01:01.546Z,26.16
2017-10-09T09:06:50.424Z,27.77
2017-10-09T09:12:30.694Z,27.19
2017-10-09T09:18:14.327Z,27.10
2017-10-09T09:24:00.959Z,27.21
2017-10-09T09:29:50.648Z,25.67
2017-10-09T09:35:34.155Z,23.66
2017-10-09T09:41:17.806Z,23.09
2017-10-09T09:47:00.855Z,22.12
2017-10-09T09:52:45.475Z,22.23
2017-10-09T09:58:32.186Z,20.99
2017-10-09T10:04:14.982Z,20.71
2017-10-09T10:09:59.800Z,20.02
2017-10-09T10:15:49.194Z,19.69
2017-10-09T10:21:31.994Z,19.72
2017-10-09T10:27:14.575Z,18.63
2017-10-09T10:33:01.027Z,18.12
2017-10-09T10:38:47.662Z,18.43
2017-10-09T10:44:30.643Z,18.37
2017-10-09T10:50:15.547Z,18.02
2017-10-09T10:56:01.983Z,19.05
2017-10-09T11:01:46.171Z,19.24
2017-10-09T11:07:35.302Z,19.01
2017-10-09T11:13:19.926Z,19.28
2017-10-09T11:19:04.794Z,18.94
2017-10-09T11:24:47.651Z,17.79
2017-10-09T11:30:30.795Z,17.62
2017-10-09T11:36:01.601Z,17.57
2017-10-09T11:41:48.625Z,17.72
2017-10-09T11:47:33.938Z,17.64
2017-10-09T11:53:17.057Z,17.13
2017-10-09T11:58:47.607Z,17.11
2017-10-09T12:01:14.999Z,17.07
2017-10-09T12:06:45.040Z,16.76
2017-10-09T12:12:16.810Z,16.30
2017-10-09T12:18:03.883Z,16.82
2017-10-09T12:23:47.396Z,16.99
2017-10-09T12:29:31.422Z,16.80
2017-10-09T12:35:14.314Z,16.45
2017-10-09T12:40:59.278Z,16.34
2017-10-09T12:46:46.838Z,16.46
2017-10-09T12:52:35.383Z,15.66
2017-10-09T12:58:18.422Z,15.54
2017-10-09T13:04:01.182Z,15.54
2017-10-09T13:09:44.905Z,15.58
2017-10-09T13:15:31.279Z,15.20
2017-10-09T13:21:17.586Z,15.81
2017-10-09T13:27:02.367Z,16.03
2017-10-09T13:32:46.123Z,15.90
2017-10-09T13:38:35.113Z,15.68
2017-10-09T13:44:18.589Z,15.92
2017-10-09T13:50:01.308Z,16.10
2017-10-09T13:55:44.096Z,16.62
2017-10-09T14:01:30.511Z,16.88
2017-10-09T14:07:19.576Z,15.68
2017-10-09T14:13:03.047Z,15.32
2017-10-09T14:18:45.832Z,15.31
2017-10-09T14:24:28.667Z,15.60
2017-10-09T16:04:17.486Z,15.80
2017-10-09T16:10:00.757Z,15.72
2017-10-09T16:15:50.000Z,15.91
2017-10-09T16:21:33.229Z,15.81
2017-10-09T16:27:17.922Z,15.50
2017-10-09T16:33:04.456Z,15.42
2017-10-09T16:38:47.008Z,15.18
2017-10-09T16:44:33.792Z,15.25
2017-10-09T16:50:16.249Z,15.07
2017-10-09T16:56:05.469Z,14.96
2017-10-09T17:01:46.095Z,14.79
2017-10-09T17:07:29.143Z,14.51
2017-10-09T17:13:15.811Z,14.53
2017-10-09T17:19:05.030Z,14.09
2017-10-09T17:24:47.411Z,14.22
2017-10-09T17:30:31.936Z,14.11
2017-10-09T17:36:16.597Z,14.19
2017-10-09T17:42:03.201Z,13.94
2017-10-09T17:47:47.796Z,14.10
2017-10-09T17:53:31.337Z,14.02
2017-10-09T17:59:16.049Z,14.02
2017-10-09T18:04:59.735Z,13.71
2017-10-09T18:10:46.381Z,13.83
2017-10-09T18:16:30.857Z,13.63
2017-10-09T18:22:15.711Z,13.57
2017-10-09T18:28:02.564Z,13.87
2017-10-09T18:33:48.807Z,13.67
2017-10-09T18:39:31.704Z,13.85
2017-10-09T18:45:20.525Z,13.80
2017-10-09T18:51:03.588Z,13.56
2017-10-09T18:56:46.899Z,13.29
2017-10-09T19:02:30.383Z,13.85
2017-10-09T19:08:17.151Z,13.86
2017-10-09T19:14:00.103Z,13.76
2017-10-09T19:19:46.724Z,13.78
2017-10-09T19:25:35.762Z,13.79
2017-10-09T19:31:18.935Z,13.39
2017-10-09T19:37:03.426Z,13.72
2017-10-09T19:42:47.076Z,13.89
2017-10-09T19:48:32.312Z,13.97
2017-10-09T19:54:15.296Z,13.81
2017-10-09T20:00:02.077Z,13.69
2017-10-09T20:05:48.912Z,14.12
2017-10-09T20:11:31.862Z,14.01
2017-10-09T20:17:21.610Z,14.08
2017-10-09T20:23:01.271Z,14.16
2017-10-09T20:28:51.521Z,13.53
2017-10-09T20:34:32.082Z,13.61
2017-10-09T20:40:19.390Z,13.70
2017-10-09T20:46:02.848Z,13.81
2017-10-09T20:51:46.004Z,13.95
2017-10-09T20:57:30.403Z,13.91
2017-10-09T21:03:16.860Z,13.88
2017-10-09T21:09:03.676Z,13.28
2017-10-09T21:14:50.221Z,13.63
2017-10-09T21:20:32.751Z,13.36
2017-10-09T21:26:19.168Z,13.38
2017-10-09T21:32:02.818Z,13.61
2017-10-09T21:37:51.817Z,13.66
2017-10-09T21:43:34.635Z,13.77
2017-10-09T21:49:17.120Z,13.71
2017-10-09T21:55:01.936Z,14.26
2017-10-09T22:00:48.668Z,14.16
2017-10-09T22:06:31.459Z,14.23
2017-10-09T22:12:16.129Z,14.09
2017-10-09T22:18:05.369Z,14.04
2017-10-09T22:23:48.402Z,14.01
2017-10-09T22:29:32.950Z,14.03
2017-10-09T22:35:16.001Z,14.08
2017-10-09T22:41:02.607Z,14.13
2017-10-09T22:46:49.135Z,14.14
2017-10-09T22:52:32.249Z,14.37
2017-10-09T22:58:17.240Z,14.63
2017-10-09T23:04:00.549Z,14.59
2017-10-09T23:09:46.999Z,14.53
2017-10-09T23:15:33.370Z,14.26
2017-10-09T23:21:18.127Z,14.28
2017-10-09T23:27:07.402Z,13.88
2017-10-09T23:32:50.659Z,14.05
2017-10-09T23:38:33.659Z,14.02
2017-10-09T23:44:16.976Z,14.22
2017-10-09T23:50:06.253Z,13.99
2017-10-09T23:55:49.220Z,14.15
